sensor_id;sensor_type;location;lat;lon;timestamp;P1;durP1;ratioP1;P2;durP2;ratioP2
41952;SDS011;63613;28.200;112.870;2023-05-07T00:01:18;9.82;;;7.93;;
41952;SDS011;63613;28.200;112.870;2023-05-07T00:03:45;10.45;;;8.32;;
41952;SDS011;63613;28.200;112.870;2023-05-07T00:06:12;9.00;;;8.10;;
41952;SDS011;63613;28.200;112.870;2023-05-07T00:08:38;8.45;;;7.50;;
41952;SDS011;63613;28.200;112.870;2023-05-07T00:11:05;8.93;;;8.02;;
41952;SDS011;63613;28.200;112.870;2023-05-07T00:13:52;8.23;;;7.47;;
41952;SDS011;63613;28.200;112.870;2023-05-07T00:16:19;9.20;;;8.23;;
41952;SDS011;63613;28.200;112.870;2023-05-07T00:18:46;8.27;;;7.53;;
41952;SDS011;63613;28.200;112.870;2023-05-07T00:21:13;9.20;;;8.32;;
41952;SDS011;63613;28.200;112.870;2023-05-07T00:23:40;9.27;;;8.38;;
41952;SDS011;63613;28.200;112.870;2023-05-07T00:26:07;10.45;;;8.40;;
41952;SDS011;63613;28.200;112.870;2023-05-07T00:28:34;9.05;;;8.13;;
41952;SDS011;63613;28.200;112.870;2023-05-07T00:31:00;8.93;;;8.13;;
41952;SDS011;63613;28.200;112.870;2023-05-07T00:33:27;10.18;;;9.10;;
41952;SDS011;63613;28.200;112.870;2023-05-07T00:35:54;10.07;;;9.15;;
41952;SDS011;63613;28.200;112.870;2023-05-07T00:38:21;9.70;;;8.63;;
41952;SDS011;63613;28.200;112.870;2023-05-07T00:40:48;9.07;;;8.23;;
41952;SDS011;63613;28.200;112.870;2023-05-07T00:43:15;9.65;;;8.68;;
41952;SDS011;63613;28.200;112.870;2023-05-07T00:45:42;10.20;;;9.20;;
41952;SDS011;63613;28.200;112.870;2023-05-07T00:48:09;9.35;;;8.48;;
41952;SDS011;63613;28.200;112.870;2023-05-07T00:50:36;11.57;;;9.57;;
41952;SDS011;63613;28.200;112.870;2023-05-07T00:53:06;9.45;;;8.50;;
41952;SDS011;63613;28.200;112.870;2023-05-07T00:55:33;9.38;;;8.25;;
41952;SDS011;63613;28.200;112.870;2023-05-07T00:58:01;10.30;;;9.30;;
41952;SDS011;63613;28.200;112.870;2023-05-07T01:00:28;10.07;;;8.93;;
41952;SDS011;63613;28.200;112.870;2023-05-07T01:02:55;9.23;;;8.18;;
41952;SDS011;63613;28.200;112.870;2023-05-07T01:05:22;9.60;;;8.48;;
41952;SDS011;63613;28.200;112.870;2023-05-07T01:07:50;9.45;;;8.55;;
41952;SDS011;63613;28.200;112.870;2023-05-07T01:10:20;11.02;;;9.45;;
41952;SDS011;63613;28.200;112.870;2023-05-07T01:12:49;9.65;;;8.73;;
41952;SDS011;63613;28.200;112.870;2023-05-07T01:15:19;10.77;;;8.75;;
41952;SDS011;63613;28.200;112.870;2023-05-07T01:17:46;9.82;;;8.82;;
41952;SDS011;63613;28.200;112.870;2023-05-07T01:20:33;10.20;;;8.00;;
41952;SDS011;63613;28.200;112.870;2023-05-07T01:23:00;10.05;;;9.05;;
41952;SDS011;63613;28.200;112.870;2023-05-07T01:25:34;10.00;;;9.10;;
41952;SDS011;63613;28.200;112.870;2023-05-07T01:28:02;10.07;;;9.07;;
41952;SDS011;63613;28.200;112.870;2023-05-07T01:30:29;10.35;;;9.32;;
41952;SDS011;63613;28.200;112.870;2023-05-07T01:32:56;9.32;;;8.48;;
41952;SDS011;63613;28.200;112.870;2023-05-07T01:35:45;9.80;;;8.95;;
41952;SDS011;63613;28.200;112.870;2023-05-07T01:38:14;9.98;;;8.95;;
41952;SDS011;63613;28.200;112.870;2023-05-07T01:41:02;10.68;;;8.60;;
41952;SDS011;63613;28.200;112.870;2023-05-07T01:43:30;9.85;;;8.63;;
41952;SDS011;63613;28.200;112.870;2023-05-07T01:45:57;10.57;;;9.18;;
41952;SDS011;63613;28.200;112.870;2023-05-07T01:48:25;8.77;;;7.97;;
41952;SDS011;63613;28.200;112.870;2023-05-07T01:50:55;11.63;;;8.73;;
41952;SDS011;63613;28.200;112.870;2023-05-07T01:53:22;9.43;;;8.52;;
41952;SDS011;63613;28.200;112.870;2023-05-07T01:55:53;10.43;;;9.02;;
41952;SDS011;63613;28.200;112.870;2023-05-07T01:58:19;10.18;;;8.98;;
41952;SDS011;63613;28.200;112.870;2023-05-07T02:00:47;9.77;;;8.80;;
41952;SDS011;63613;28.200;112.870;2023-05-07T02:03:14;9.18;;;8.18;;
41952;SDS011;63613;28.200;112.870;2023-05-07T02:05:42;9.40;;;8.60;;
41952;SDS011;63613;28.200;112.870;2023-05-07T02:08:10;8.65;;;7.85;;
41952;SDS011;63613;28.200;112.870;2023-05-07T02:10:37;9.85;;;8.85;;
41952;SDS011;63613;28.200;112.870;2023-05-07T02:13:03;9.77;;;8.88;;
41952;SDS011;63613;28.200;112.870;2023-05-07T02:15:33;10.30;;;9.15;;
41952;SDS011;63613;28.200;112.870;2023-05-07T02:20:30;10.32;;;9.25;;
41952;SDS011;63613;28.200;112.870;2023-05-07T02:22:57;10.95;;;9.88;;
41952;SDS011;63613;28.200;112.870;2023-05-07T02:25:24;11.40;;;10.02;;
41952;SDS011;63613;28.200;112.870;2023-05-07T02:27:51;10.00;;;8.88;;
41952;SDS011;63613;28.200;112.870;2023-05-07T02:30:18;10.02;;;9.02;;
41952;SDS011;63613;28.200;112.870;2023-05-07T02:32:48;9.38;;;8.57;;
41952;SDS011;63613;28.200;112.870;2023-05-07T02:35:15;10.80;;;8.80;;
41952;SDS011;63613;28.200;112.870;2023-05-07T02:37:42;10.40;;;9.45;;
41952;SDS011;63613;28.200;112.870;2023-05-07T02:40:10;9.60;;;8.70;;
41952;SDS011;63613;28.200;112.870;2023-05-07T02:42:37;13.52;;;9.68;;
41952;SDS011;63613;28.200;112.870;2023-05-07T02:45:04;9.65;;;8.57;;
41952;SDS011;63613;28.200;112.870;2023-05-07T02:47:31;10.25;;;9.35;;
41952;SDS011;63613;28.200;112.870;2023-05-07T02:49:58;11.02;;;9.05;;
41952;SDS011;63613;28.200;112.870;2023-05-07T02:52:25;10.32;;;9.27;;
41952;SDS011;63613;28.200;112.870;2023-05-07T02:55:11;10.35;;;9.23;;
41952;SDS011;63613;28.200;112.870;2023-05-07T02:57:39;11.27;;;9.68;;
41952;SDS011;63613;28.200;112.870;2023-05-07T03:02:41;11.32;;;9.25;;
41952;SDS011;63613;28.200;112.870;2023-05-07T03:05:07;9.43;;;8.40;;
41952;SDS011;63613;28.200;112.870;2023-05-07T03:07:36;9.85;;;8.95;;
41952;SDS011;63613;28.200;112.870;2023-05-07T03:10:23;10.25;;;9.15;;
41952;SDS011;63613;28.200;112.870;2023-05-07T03:12:50;9.75;;;8.45;;
41952;SDS011;63613;28.200;112.870;2023-05-07T03:15:17;9.95;;;9.02;;
41952;SDS011;63613;28.200;112.870;2023-05-07T03:17:44;10.23;;;9.13;;
41952;SDS011;63613;28.200;112.870;2023-05-07T03:20:11;11.50;;;9.68;;
41952;SDS011;63613;28.200;112.870;2023-05-07T03:22:38;10.18;;;9.00;;
41952;SDS011;63613;28.200;112.870;2023-05-07T03:25:05;9.13;;;8.23;;
41952;SDS011;63613;28.200;112.870;2023-05-07T03:27:33;9.95;;;9.05;;
41952;SDS011;63613;28.200;112.870;2023-05-07T03:30:00;9.52;;;8.63;;
41952;SDS011;63613;28.200;112.870;2023-05-07T03:32:26;10.00;;;8.77;;
41952;SDS011;63613;28.200;112.870;2023-05-07T03:34:55;12.23;;;9.50;;
41952;SDS011;63613;28.200;112.870;2023-05-07T03:37:24;9.82;;;8.63;;
41952;SDS011;63613;28.200;112.870;2023-05-07T03:39:51;9.80;;;8.80;;
41952;SDS011;63613;28.200;112.870;2023-05-07T03:42:18;10.98;;;9.32;;
41952;SDS011;63613;28.200;112.870;2023-05-07T03:44:45;9.55;;;8.65;;
41952;SDS011;63613;28.200;112.870;2023-05-07T03:47:31;10.82;;;9.73;;
41952;SDS011;63613;28.200;112.870;2023-05-07T03:49:58;10.98;;;9.93;;
41952;SDS011;63613;28.200;112.870;2023-05-07T03:52:25;10.20;;;9.27;;
41952;SDS011;63613;28.200;112.870;2023-05-07T03:55:12;11.85;;;9.45;;
41952;SDS011;63613;28.200;112.870;2023-05-07T03:57:39;10.43;;;9.40;;
41952;SDS011;63613;28.200;112.870;2023-05-07T04:00:09;10.13;;;9.13;;
41952;SDS011;63613;28.200;112.870;2023-05-07T04:02:36;9.63;;;8.55;;
41952;SDS011;63613;28.200;112.870;2023-05-07T04:05:03;12.27;;;9.30;;
41952;SDS011;63613;28.200;112.870;2023-05-07T04:07:30;10.25;;;9.10;;
41952;SDS011;63613;28.200;112.870;2023-05-07T04:09:57;18.90;;;9.80;;
41952;SDS011;63613;28.200;112.870;2023-05-07T04:12:24;10.68;;;9.57;;
41952;SDS011;63613;28.200;112.870;2023-05-07T04:14:50;9.88;;;8.88;;
41952;SDS011;63613;28.200;112.870;2023-05-07T04:17:17;16.70;;;9.13;;
41952;SDS011;63613;28.200;112.870;2023-05-07T04:19:44;9.27;;;8.15;;
41952;SDS011;63613;28.200;112.870;2023-05-07T04:22:12;11.10;;;8.95;;
41952;SDS011;63613;28.200;112.870;2023-05-07T04:24:39;13.18;;;9.25;;
41952;SDS011;63613;28.200;112.870;2023-05-07T04:27:06;10.85;;;9.75;;
41952;SDS011;63613;28.200;112.870;2023-05-07T04:29:32;16.52;;;12.32;;
41952;SDS011;63613;28.200;112.870;2023-05-07T04:31:59;16.42;;;13.05;;
41952;SDS011;63613;28.200;112.870;2023-05-07T04:34:32;15.95;;;14.35;;
41952;SDS011;63613;28.200;112.870;2023-05-07T04:36:58;24.52;;;18.38;;
41952;SDS011;63613;28.200;112.870;2023-05-07T04:39:25;22.40;;;18.85;;
41952;SDS011;63613;28.200;112.870;2023-05-07T04:41:53;60.13;;;31.92;;
41952;SDS011;63613;28.200;112.870;2023-05-07T04:44:21;104.80;;;44.33;;
41952;SDS011;63613;28.200;112.870;2023-05-07T04:46:47;115.18;;;48.33;;
41952;SDS011;63613;28.200;112.870;2023-05-07T04:49:15;121.47;;;48.35;;
41952;SDS011;63613;28.200;112.870;2023-05-07T04:51:42;120.10;;;49.25;;
41952;SDS011;63613;28.200;112.870;2023-05-07T04:54:08;97.45;;;45.35;;
41952;SDS011;63613;28.200;112.870;2023-05-07T04:56:35;104.60;;;43.35;;
41952;SDS011;63613;28.200;112.870;2023-05-07T04:59:04;88.95;;;41.50;;
41952;SDS011;63613;28.200;112.870;2023-05-07T05:01:33;90.22;;;41.75;;
41952;SDS011;63613;28.200;112.870;2023-05-07T05:04:00;90.97;;;40.25;;
41952;SDS011;63613;28.200;112.870;2023-05-07T05:06:28;89.07;;;39.05;;
41952;SDS011;63613;28.200;112.870;2023-05-07T05:08:58;83.13;;;36.25;;
41952;SDS011;63613;28.200;112.870;2023-05-07T05:11:25;81.00;;;37.50;;
41952;SDS011;63613;28.200;112.870;2023-05-07T05:14:11;80.00;;;37.80;;
41952;SDS011;63613;28.200;112.870;2023-05-07T05:16:38;76.85;;;34.65;;
41952;SDS011;63613;28.200;112.870;2023-05-07T05:19:05;74.68;;;34.38;;
41952;SDS011;63613;28.200;112.870;2023-05-07T05:21:52;63.08;;;34.10;;
41952;SDS011;63613;28.200;112.870;2023-05-07T05:24:19;65.65;;;31.10;;
41952;SDS011;63613;28.200;112.870;2023-05-07T05:26:47;64.88;;;30.98;;
41952;SDS011;63613;28.200;112.870;2023-05-07T05:29:15;64.95;;;31.83;;
41952;SDS011;63613;28.200;112.870;2023-05-07T05:31:42;60.63;;;30.13;;
41952;SDS011;63613;28.200;112.870;2023-05-07T05:34:10;56.53;;;28.15;;
41952;SDS011;63613;28.200;112.870;2023-05-07T05:36:36;53.03;;;29.95;;
41952;SDS011;63613;28.200;112.870;2023-05-07T05:39:03;54.47;;;28.77;;
41952;SDS011;63613;28.200;112.870;2023-05-07T05:41:31;51.03;;;26.75;;
41952;SDS011;63613;28.200;112.870;2023-05-07T05:43:58;49.17;;;27.33;;
41952;SDS011;63613;28.200;112.870;2023-05-07T05:46:25;45.20;;;26.00;;
41952;SDS011;63613;28.200;112.870;2023-05-07T05:48:52;49.42;;;26.33;;
41952;SDS011;63613;28.200;112.870;2023-05-07T05:51:22;51.08;;;27.27;;
41952;SDS011;63613;28.200;112.870;2023-05-07T05:53:49;47.30;;;26.55;;
41952;SDS011;63613;28.200;112.870;2023-05-07T05:56:17;45.25;;;24.40;;
41952;SDS011;63613;28.200;112.870;2023-05-07T05:58:47;47.17;;;24.38;;
41952;SDS011;63613;28.200;112.870;2023-05-07T06:01:14;40.20;;;24.08;;
41952;SDS011;63613;28.200;112.870;2023-05-07T06:03:42;40.42;;;23.75;;
41952;SDS011;63613;28.200;112.870;2023-05-07T06:06:09;39.65;;;23.98;;
41952;SDS011;63613;28.200;112.870;2023-05-07T06:08:36;36.47;;;22.55;;
41952;SDS011;63613;28.200;112.870;2023-05-07T06:11:03;34.55;;;23.15;;
41952;SDS011;63613;28.200;112.870;2023-05-07T06:13:32;32.22;;;21.27;;
41952;SDS011;63613;28.200;112.870;2023-05-07T06:15:59;34.80;;;22.27;;
41952;SDS011;63613;28.200;112.870;2023-05-07T06:18:26;38.35;;;23.30;;
41952;SDS011;63613;28.200;112.870;2023-05-07T06:20:55;36.55;;;22.20;;
41952;SDS011;63613;28.200;112.870;2023-05-07T06:23:22;40.17;;;22.48;;
41952;SDS011;63613;28.200;112.870;2023-05-07T06:25:49;33.88;;;22.02;;
41952;SDS011;63613;28.200;112.870;2023-05-07T06:28:17;31.70;;;21.70;;
41952;SDS011;63613;28.200;112.870;2023-05-07T06:30:45;30.10;;;21.13;;
41952;SDS011;63613;28.200;112.870;2023-05-07T06:33:14;32.08;;;20.45;;
41952;SDS011;63613;28.200;112.870;2023-05-07T06:35:41;32.47;;;21.42;;
41952;SDS011;63613;28.200;112.870;2023-05-07T06:38:09;32.63;;;21.10;;
41952;SDS011;63613;28.200;112.870;2023-05-07T06:40:37;31.48;;;20.48;;
41952;SDS011;63613;28.200;112.870;2023-05-07T06:43:04;24.98;;;20.65;;
41952;SDS011;63613;28.200;112.870;2023-05-07T06:45:31;26.27;;;19.75;;
41952;SDS011;63613;28.200;112.870;2023-05-07T06:47:58;30.30;;;20.23;;
41952;SDS011;63613;28.200;112.870;2023-05-07T06:50:29;25.90;;;19.38;;
41952;SDS011;63613;28.200;112.870;2023-05-07T06:52:56;25.48;;;18.27;;
41952;SDS011;63613;28.200;112.870;2023-05-07T06:55:22;25.13;;;18.42;;
41952;SDS011;63613;28.200;112.870;2023-05-07T06:57:51;27.15;;;19.15;;
41952;SDS011;63613;28.200;112.870;2023-05-07T07:00:18;24.63;;;20.35;;
41952;SDS011;63613;28.200;112.870;2023-05-07T07:02:45;27.83;;;20.45;;
41952;SDS011;63613;28.200;112.870;2023-05-07T07:05:14;32.40;;;27.55;;
41952;SDS011;63613;28.200;112.870;2023-05-07T07:07:41;27.10;;;22.30;;
41952;SDS011;63613;28.200;112.870;2023-05-07T07:10:08;24.52;;;20.13;;
41952;SDS011;63613;28.200;112.870;2023-05-07T07:12:35;28.23;;;20.73;;
41952;SDS011;63613;28.200;112.870;2023-05-07T07:15:02;26.00;;;21.50;;
41952;SDS011;63613;28.200;112.870;2023-05-07T07:17:32;28.38;;;21.45;;
41952;SDS011;63613;28.200;112.870;2023-05-07T07:20:02;23.00;;;19.88;;
41952;SDS011;63613;28.200;112.870;2023-05-07T07:22:29;27.75;;;23.20;;
41952;SDS011;63613;28.200;112.870;2023-05-07T07:24:57;25.13;;;20.52;;
41952;SDS011;63613;28.200;112.870;2023-05-07T07:27:25;26.30;;;21.23;;
41952;SDS011;63613;28.200;112.870;2023-05-07T07:30:12;25.60;;;21.85;;
41952;SDS011;63613;28.200;112.870;2023-05-07T07:32:42;23.85;;;21.27;;
41952;SDS011;63613;28.200;112.870;2023-05-07T07:35:09;27.92;;;21.55;;
41952;SDS011;63613;28.200;112.870;2023-05-07T07:37:36;31.00;;;23.35;;
41952;SDS011;63613;28.200;112.870;2023-05-07T07:40:02;27.30;;;24.48;;
41952;SDS011;63613;28.200;112.870;2023-05-07T07:42:30;31.80;;;22.88;;
41952;SDS011;63613;28.200;112.870;2023-05-07T07:44:58;28.90;;;22.23;;
41952;SDS011;63613;28.200;112.870;2023-05-07T07:47:25;30.88;;;26.40;;
41952;SDS011;63613;28.200;112.870;2023-05-07T07:50:13;28.73;;;24.98;;
41952;SDS011;63613;28.200;112.870;2023-05-07T07:52:43;26.00;;;21.23;;
41952;SDS011;63613;28.200;112.870;2023-05-07T07:55:10;33.13;;;26.67;;
41952;SDS011;63613;28.200;112.870;2023-05-07T07:57:39;25.00;;;20.55;;
41952;SDS011;63613;28.200;112.870;2023-05-07T08:00:06;29.80;;;24.90;;
41952;SDS011;63613;28.200;112.870;2023-05-07T08:02:39;28.05;;;22.80;;
41952;SDS011;63613;28.200;112.870;2023-05-07T08:05:09;26.65;;;24.02;;
41952;SDS011;63613;28.200;112.870;2023-05-07T08:07:36;27.40;;;24.60;;
41952;SDS011;63613;28.200;112.870;2023-05-07T08:10:23;30.67;;;22.83;;
41952;SDS011;63613;28.200;112.870;2023-05-07T08:12:50;27.65;;;23.52;;
41952;SDS011;63613;28.200;112.870;2023-05-07T08:15:17;24.15;;;21.60;;
41952;SDS011;63613;28.200;112.870;2023-05-07T08:17:44;25.00;;;21.80;;
41952;SDS011;63613;28.200;112.870;2023-05-07T08:20:14;26.90;;;24.05;;
41952;SDS011;63613;28.200;112.870;2023-05-07T08:22:41;24.23;;;19.55;;
41952;SDS011;63613;28.200;112.870;2023-05-07T08:25:08;26.42;;;20.73;;
41952;SDS011;63613;28.200;112.870;2023-05-07T08:27:38;23.52;;;21.15;;
41952;SDS011;63613;28.200;112.870;2023-05-07T08:30:05;25.77;;;21.13;;
41952;SDS011;63613;28.200;112.870;2023-05-07T08:32:36;22.65;;;20.30;;
41952;SDS011;63613;28.200;112.870;2023-05-07T08:35:03;26.67;;;21.52;;
41952;SDS011;63613;28.200;112.870;2023-05-07T08:37:36;24.73;;;21.40;;
41952;SDS011;63613;28.200;112.870;2023-05-07T08:40:03;25.27;;;21.65;;
41952;SDS011;63613;28.200;112.870;2023-05-07T08:42:31;26.27;;;20.73;;
41952;SDS011;63613;28.200;112.870;2023-05-07T08:45:07;25.75;;;21.50;;
41952;SDS011;63613;28.200;112.870;2023-05-07T08:47:46;22.57;;;20.17;;
41952;SDS011;63613;28.200;112.870;2023-05-07T08:50:16;32.85;;;21.63;;
41952;SDS011;63613;28.200;112.870;2023-05-07T08:52:45;26.15;;;19.48;;
41952;SDS011;63613;28.200;112.870;2023-05-07T08:55:32;23.70;;;20.80;;
41952;SDS011;63613;28.200;112.870;2023-05-07T08:57:59;25.77;;;20.33;;
41952;SDS011;63613;28.200;112.870;2023-05-07T09:00:32;24.05;;;20.35;;
41952;SDS011;63613;28.200;112.870;2023-05-07T09:02:59;22.98;;;19.40;;
41952;SDS011;63613;28.200;112.870;2023-05-07T09:05:27;28.40;;;22.02;;
41952;SDS011;63613;28.200;112.870;2023-05-07T09:07:54;24.48;;;20.80;;
41952;SDS011;63613;28.200;112.870;2023-05-07T09:10:21;23.42;;;20.35;;
41952;SDS011;63613;28.200;112.870;2023-05-07T09:12:48;27.80;;;20.58;;
41952;SDS011;63613;28.200;112.870;2023-05-07T09:15:16;24.35;;;20.27;;
41952;SDS011;63613;28.200;112.870;2023-05-07T09:18:03;28.98;;;21.00;;
41952;SDS011;63613;28.200;112.870;2023-05-07T09:20:30;26.27;;;23.30;;
41952;SDS011;63613;28.200;112.870;2023-05-07T09:22:57;30.95;;;25.45;;
41952;SDS011;63613;28.200;112.870;2023-05-07T09:25:30;28.90;;;24.73;;
41952;SDS011;63613;28.200;112.870;2023-05-07T09:27:59;28.15;;;24.30;;
41952;SDS011;63613;28.200;112.870;2023-05-07T09:30:27;36.53;;;30.25;;
41952;SDS011;63613;28.200;112.870;2023-05-07T09:32:56;31.63;;;28.35;;
41952;SDS011;63613;28.200;112.870;2023-05-07T09:35:27;33.03;;;25.85;;
41952;SDS011;63613;28.200;112.870;2023-05-07T09:37:56;28.75;;;24.75;;
41952;SDS011;63613;28.200;112.870;2023-05-07T09:40:25;28.98;;;25.95;;
41952;SDS011;63613;28.200;112.870;2023-05-07T09:43:13;30.25;;;26.23;;
41952;SDS011;63613;28.200;112.870;2023-05-07T09:45:42;28.80;;;25.70;;
41952;SDS011;63613;28.200;112.870;2023-05-07T09:48:09;31.77;;;25.80;;
41952;SDS011;63613;28.200;112.870;2023-05-07T09:50:40;33.40;;;25.48;;
41952;SDS011;63613;28.200;112.870;2023-05-07T09:53:17;31.05;;;25.10;;
41952;SDS011;63613;28.200;112.870;2023-05-07T09:55:44;29.30;;;25.08;;
41952;SDS011;63613;28.200;112.870;2023-05-07T09:58:12;31.38;;;27.30;;
41952;SDS011;63613;28.200;112.870;2023-05-07T10:00:42;30.55;;;23.75;;
41952;SDS011;63613;28.200;112.870;2023-05-07T10:03:10;34.60;;;26.67;;
41952;SDS011;63613;28.200;112.870;2023-05-07T10:05:39;30.00;;;26.23;;
41952;SDS011;63613;28.200;112.870;2023-05-07T10:08:09;26.33;;;23.42;;
41952;SDS011;63613;28.200;112.870;2023-05-07T10:10:37;31.88;;;26.58;;
41952;SDS011;63613;28.200;112.870;2023-05-07T10:13:04;30.10;;;26.25;;
41952;SDS011;63613;28.200;112.870;2023-05-07T10:15:36;27.35;;;22.40;;
41952;SDS011;63613;28.200;112.870;2023-05-07T10:18:04;25.98;;;21.48;;
41952;SDS011;63613;28.200;112.870;2023-05-07T10:20:33;28.35;;;21.95;;
41952;SDS011;63613;28.200;112.870;2023-05-07T10:23:02;25.30;;;21.30;;
41952;SDS011;63613;28.200;112.870;2023-05-07T10:25:32;24.65;;;20.98;;
41952;SDS011;63613;28.200;112.870;2023-05-07T10:27:59;22.70;;;19.63;;
41952;SDS011;63613;28.200;112.870;2023-05-07T10:34:01;21.70;;;18.40;;
41952;SDS011;63613;28.200;112.870;2023-05-07T10:36:34;21.77;;;18.10;;
41952;SDS011;63613;28.200;112.870;2023-05-07T10:39:01;20.45;;;18.35;;
41952;SDS011;63613;28.200;112.870;2023-05-07T10:41:28;21.33;;;17.23;;
41952;SDS011;63613;28.200;112.870;2023-05-07T10:43:55;20.33;;;17.88;;
41952;SDS011;63613;28.200;112.870;2023-05-07T10:46:25;20.50;;;16.48;;
41952;SDS011;63613;28.200;112.870;2023-05-07T10:51:32;22.70;;;17.80;;
41952;SDS011;63613;28.200;112.870;2023-05-07T10:56:37;22.85;;;16.48;;
41952;SDS011;63613;28.200;112.870;2023-05-07T10:59:43;17.40;;;15.48;;
41952;SDS011;63613;28.200;112.870;2023-05-07T11:02:10;19.63;;;15.95;;
41952;SDS011;63613;28.200;112.870;2023-05-07T11:04:39;19.48;;;15.95;;
41952;SDS011;63613;28.200;112.870;2023-05-07T11:17:34;19.08;;;16.55;;
41952;SDS011;63613;28.200;112.870;2023-05-07T11:20:17;21.67;;;16.00;;
41952;SDS011;63613;28.200;112.870;2023-05-07T11:22:44;17.20;;;14.70;;
41952;SDS011;63613;28.200;112.870;2023-05-07T11:25:11;18.10;;;15.88;;
41952;SDS011;63613;28.200;112.870;2023-05-07T11:27:46;18.08;;;15.02;;
41952;SDS011;63613;28.200;112.870;2023-05-07T11:30:20;17.95;;;14.30;;
41952;SDS011;63613;28.200;112.870;2023-05-07T11:32:47;18.60;;;15.80;;
41952;SDS011;63613;28.200;112.870;2023-05-07T11:35:14;16.27;;;13.75;;
41952;SDS011;63613;28.200;112.870;2023-05-07T11:37:42;15.88;;;14.02;;
41952;SDS011;63613;28.200;112.870;2023-05-07T11:40:11;16.33;;;14.63;;
41952;SDS011;63613;28.200;112.870;2023-05-07T11:42:39;17.02;;;15.23;;
41952;SDS011;63613;28.200;112.870;2023-05-07T11:45:12;20.38;;;16.13;;
41952;SDS011;63613;28.200;112.870;2023-05-07T11:47:53;17.02;;;14.32;;
41952;SDS011;63613;28.200;112.870;2023-05-07T11:50:20;18.55;;;14.60;;
41952;SDS011;63613;28.200;112.870;2023-05-07T11:52:52;16.08;;;14.38;;
41952;SDS011;63613;28.200;112.870;2023-05-07T11:55:19;17.83;;;14.52;;
41952;SDS011;63613;28.200;112.870;2023-05-07T11:57:49;15.85;;;14.05;;
41952;SDS011;63613;28.200;112.870;2023-05-07T12:00:16;16.58;;;14.48;;
41952;SDS011;63613;28.200;112.870;2023-05-07T12:02:44;16.05;;;14.32;;
41952;SDS011;63613;28.200;112.870;2023-05-07T12:05:11;15.10;;;13.52;;
41952;SDS011;63613;28.200;112.870;2023-05-07T12:07:38;15.65;;;13.98;;
41952;SDS011;63613;28.200;112.870;2023-05-07T12:10:08;15.48;;;13.95;;
41952;SDS011;63613;28.200;112.870;2023-05-07T12:12:39;17.35;;;14.27;;
41952;SDS011;63613;28.200;112.870;2023-05-07T12:15:07;16.52;;;13.55;;
41952;SDS011;63613;28.200;112.870;2023-05-07T12:17:34;15.35;;;13.82;;
41952;SDS011;63613;28.200;112.870;2023-05-07T12:20:01;14.77;;;13.27;;
41952;SDS011;63613;28.200;112.870;2023-05-07T12:22:30;14.52;;;13.13;;
41952;SDS011;63613;28.200;112.870;2023-05-07T12:24:57;14.07;;;12.57;;
41952;SDS011;63613;28.200;112.870;2023-05-07T12:27:25;14.40;;;12.90;;
41952;SDS011;63613;28.200;112.870;2023-05-07T12:29:52;14.23;;;12.82;;
41952;SDS011;63613;28.200;112.870;2023-05-07T12:32:20;14.98;;;13.38;;
41952;SDS011;63613;28.200;112.870;2023-05-07T12:34:50;14.98;;;13.40;;
41952;SDS011;63613;28.200;112.870;2023-05-07T12:37:24;15.10;;;12.90;;
41952;SDS011;63613;28.200;112.870;2023-05-07T12:40:09;14.88;;;13.45;;
41952;SDS011;63613;28.200;112.870;2023-05-07T12:42:37;14.27;;;12.82;;
41952;SDS011;63613;28.200;112.870;2023-05-07T12:47:39;14.75;;;13.15;;
41952;SDS011;63613;28.200;112.870;2023-05-07T12:50:10;14.10;;;12.73;;
41952;SDS011;63613;28.200;112.870;2023-05-07T12:52:41;15.85;;;13.95;;
41952;SDS011;63613;28.200;112.870;2023-05-07T12:55:16;13.88;;;12.48;;
41952;SDS011;63613;28.200;112.870;2023-05-07T12:57:45;15.10;;;13.15;;
41952;SDS011;63613;28.200;112.870;2023-05-07T13:00:14;13.60;;;12.27;;
41952;SDS011;63613;28.200;112.870;2023-05-07T13:02:42;15.00;;;13.48;;
41952;SDS011;63613;28.200;112.870;2023-05-07T13:05:10;15.30;;;13.73;;
41952;SDS011;63613;28.200;112.870;2023-05-07T13:07:37;13.45;;;12.13;;
41952;SDS011;63613;28.200;112.870;2023-05-07T13:10:06;13.77;;;12.02;;
41952;SDS011;63613;28.200;112.870;2023-05-07T13:12:33;14.18;;;12.70;;
41952;SDS011;63613;28.200;112.870;2023-05-07T13:15:00;14.10;;;12.60;;
41952;SDS011;63613;28.200;112.870;2023-05-07T13:17:27;15.55;;;13.38;;
41952;SDS011;63613;28.200;112.870;2023-05-07T13:19:56;14.13;;;12.63;;
41952;SDS011;63613;28.200;112.870;2023-05-07T13:22:23;14.10;;;12.70;;
41952;SDS011;63613;28.200;112.870;2023-05-07T13:24:50;14.55;;;12.88;;
41952;SDS011;63613;28.200;112.870;2023-05-07T13:27:19;14.02;;;12.63;;
41952;SDS011;63613;28.200;112.870;2023-05-07T13:29:46;14.57;;;13.07;;
41952;SDS011;63613;28.200;112.870;2023-05-07T13:32:13;14.52;;;12.57;;
41952;SDS011;63613;28.200;112.870;2023-05-07T13:34:41;13.68;;;12.27;;
41952;SDS011;63613;28.200;112.870;2023-05-07T13:37:08;13.50;;;12.07;;
41952;SDS011;63613;28.200;112.870;2023-05-07T13:39:35;13.85;;;12.45;;
41952;SDS011;63613;28.200;112.870;2023-05-07T13:42:04;12.48;;;11.15;;
41952;SDS011;63613;28.200;112.870;2023-05-07T13:44:31;13.75;;;12.13;;
41952;SDS011;63613;28.200;112.870;2023-05-07T13:46:58;13.88;;;12.32;;
41952;SDS011;63613;28.200;112.870;2023-05-07T13:49:25;13.93;;;12.50;;
41952;SDS011;63613;28.200;112.870;2023-05-07T13:51:53;13.63;;;12.23;;
41952;SDS011;63613;28.200;112.870;2023-05-07T13:54:22;14.50;;;13.00;;
41952;SDS011;63613;28.200;112.870;2023-05-07T13:56:49;12.80;;;11.45;;
41952;SDS011;63613;28.200;112.870;2023-05-07T13:59:16;14.63;;;13.00;;
41952;SDS011;63613;28.200;112.870;2023-05-07T14:02:04;12.40;;;11.30;;
41952;SDS011;63613;28.200;112.870;2023-05-07T14:04:31;13.73;;;12.30;;
41952;SDS011;63613;28.200;112.870;2023-05-07T14:07:00;13.45;;;12.05;;
41952;SDS011;63613;28.200;112.870;2023-05-07T14:09:30;16.60;;;12.35;;
41952;SDS011;63613;28.200;112.870;2023-05-07T14:12:00;13.25;;;11.85;;
41952;SDS011;63613;28.200;112.870;2023-05-07T14:14:27;13.70;;;11.65;;
41952;SDS011;63613;28.200;112.870;2023-05-07T14:16:55;12.50;;;11.20;;
41952;SDS011;63613;28.200;112.870;2023-05-07T14:19:23;12.90;;;11.60;;
41952;SDS011;63613;28.200;112.870;2023-05-07T14:21:51;13.85;;;12.27;;
41952;SDS011;63613;28.200;112.870;2023-05-07T14:24:18;12.82;;;11.45;;
41952;SDS011;63613;28.200;112.870;2023-05-07T14:26:47;12.77;;;11.55;;
41952;SDS011;63613;28.200;112.870;2023-05-07T14:29:18;11.88;;;10.68;;
41952;SDS011;63613;28.200;112.870;2023-05-07T14:31:45;12.38;;;11.25;;
41952;SDS011;63613;28.200;112.870;2023-05-07T14:34:12;13.68;;;12.23;;
41952;SDS011;63613;28.200;112.870;2023-05-07T14:36:39;12.40;;;11.20;;
41952;SDS011;63613;28.200;112.870;2023-05-07T14:39:06;12.52;;;11.23;;